createdAt,value
2019-05-16T00:00:58.757Z,1.30
2019-05-16T00:03:28.154Z,1.35
2019-05-16T00:05:58.557Z,1.65
2019-05-16T00:08:28.528Z,1.90
2019-05-16T00:10:58.514Z,1.80
2019-05-16T00:13:28.139Z,1.37
2019-05-16T00:15:58.742Z,1.25
2019-05-16T00:18:28.401Z,1.30
2019-05-16T00:20:58.432Z,2.33
2019-05-16T00:23:28.939Z,1.65
2019-05-16T00:25:58.633Z,1.70
2019-05-16T00:28:28.594Z,1.77
2019-05-16T00:30:59.320Z,1.52
2019-05-16T00:33:30.409Z,2.58
2019-05-16T00:36:05.148Z,3.43
2019-05-16T00:38:29.930Z,1.17
2019-05-16T00:40:59.164Z,3.10
2019-05-16T00:43:28.914Z,1.57
2019-05-16T00:45:58.893Z,1.27
2019-05-16T00:48:28.839Z,1.20
2019-05-16T00:50:58.450Z,2.35
2019-05-16T00:53:28.909Z,1.80
2019-05-16T00:55:58.466Z,2.60
2019-05-16T00:58:28.636Z,1.62
2019-05-16T01:00:59.306Z,2.83
2019-05-16T01:03:29.051Z,2.30
2019-05-16T01:05:58.308Z,0.85
2019-05-16T01:08:28.148Z,4.23
2019-05-16T01:10:58.700Z,1.57
2019-05-16T01:13:28.431Z,1.98
2019-05-16T01:15:57.968Z,1.05
2019-05-16T01:18:28.768Z,4.83
2019-05-16T01:20:58.539Z,1.07
2019-05-16T01:23:28.281Z,3.30
2019-05-16T01:25:58.782Z,1.00
2019-05-16T01:28:28.430Z,3.12
2019-05-16T01:30:58.450Z,2.10
2019-05-16T01:33:28.056Z,2.97
2019-05-16T01:35:58.517Z,1.17
2019-05-16T01:38:28.467Z,1.47
2019-05-16T01:40:58.724Z,0.93
2019-05-16T01:43:28.496Z,1.15
2019-05-16T01:45:58.855Z,1.07
2019-05-16T01:48:29.175Z,1.05
2019-05-16T01:50:58.687Z,1.65
2019-05-16T01:53:28.088Z,1.65
2019-05-16T01:55:58.110Z,1.32
2019-05-16T01:58:29.004Z,0.95
2019-05-16T02:01:11.342Z,1.62
2019-05-16T02:03:29.797Z,1.37
2019-05-16T02:05:59.200Z,1.00
2019-05-16T02:08:28.631Z,1.02
2019-05-16T02:10:58.370Z,1.20
2019-05-16T02:13:28.682Z,1.40
2019-05-16T02:15:59.244Z,1.05
2019-05-16T02:18:29.284Z,2.15
2019-05-16T02:21:00.888Z,2.87
2019-05-16T02:23:28.603Z,1.70
2019-05-16T02:25:58.103Z,2.05
2019-05-16T02:28:31.335Z,1.37
2019-05-16T02:31:01.288Z,1.50
2019-05-16T02:33:31.621Z,1.82
2019-05-16T02:36:01.818Z,1.75
2019-05-16T02:38:31.867Z,1.40
2019-05-16T02:41:03.185Z,1.10
2019-05-16T02:43:32.834Z,1.63
2019-05-16T02:46:01.726Z,1.42
2019-05-16T02:48:31.586Z,2.12
2019-05-16T02:51:01.815Z,0.98
2019-05-16T02:53:31.571Z,1.20
2019-05-16T02:56:01.393Z,1.80
2019-05-16T02:58:30.981Z,1.10
2019-05-16T03:01:01.950Z,2.02
2019-05-16T03:03:31.616Z,0.80
2019-05-16T03:06:01.588Z,1.60
2019-05-16T03:08:32.380Z,1.62
2019-05-16T03:11:01.491Z,1.90
2019-05-16T03:13:31.421Z,2.63
2019-05-16T03:16:00.778Z,1.10
2019-05-16T03:18:31.016Z,2.22
2019-05-16T03:21:01.499Z,2.20
2019-05-16T03:23:30.831Z,2.60
2019-05-16T03:26:01.067Z,1.05
2019-05-16T03:28:30.774Z,2.77
2019-05-16T03:31:05.142Z,1.65
2019-05-16T03:33:35.236Z,0.87
2019-05-16T03:36:04.692Z,2.05
2019-05-16T03:38:32.701Z,1.60
2019-05-16T03:41:01.591Z,0.90
2019-05-16T03:43:30.944Z,3.02
2019-05-16T03:46:02.432Z,3.30
2019-05-16T03:48:31.852Z,1.87
2019-05-16T03:51:01.354Z,14.45
2019-05-16T03:53:31.862Z,106.43
2019-05-16T03:56:01.815Z,238.97
2019-05-16T03:58:31.252Z,251.50
2019-05-16T04:01:02.682Z,251.97
2019-05-16T04:03:33.106Z,235.95
2019-05-16T04:06:04.631Z,218.90
2019-05-16T04:08:33.519Z,188.65
2019-05-16T04:11:02.513Z,172.40
2019-05-16T04:13:32.147Z,150.63
2019-05-16T04:16:01.648Z,135.95
2019-05-16T04:18:31.793Z,120.05
2019-05-16T04:21:01.568Z,111.92
2019-05-16T04:23:31.303Z,96.50
2019-05-16T04:26:11.313Z,90.83
2019-05-16T04:28:41.292Z,80.30
2019-05-16T04:31:10.896Z,69.22
2019-05-16T04:33:41.555Z,65.00
2019-05-16T04:36:11.081Z,58.38
2019-05-16T04:38:45.543Z,54.55
2019-05-16T04:41:11.533Z,45.73
2019-05-16T04:43:41.630Z,38.85
2019-05-16T04:46:11.718Z,33.80
2019-05-16T04:48:41.640Z,32.45
2019-05-16T04:51:10.984Z,27.85
2019-05-16T04:53:42.425Z,24.55
2019-05-16T04:56:11.004Z,22.62
2019-05-16T04:58:40.926Z,22.42
2019-05-16T05:01:11.559Z,186.67
2019-05-16T05:03:45.815Z,87.70
2019-05-16T05:06:12.325Z,89.73
2019-05-16T05:08:53.815Z,125.73
2019-05-16T05:11:11.938Z,132.82
2019-05-16T05:13:41.263Z,119.93
2019-05-16T05:16:10.864Z,113.80
2019-05-16T05:18:41.080Z,105.20
2019-05-16T05:21:11.803Z,101.07
2019-05-16T05:23:40.865Z,59.25
2019-05-16T05:26:11.734Z,152.17
2019-05-16T05:28:40.634Z,267.37
2019-05-16T05:31:10.878Z,236.72
2019-05-16T05:33:41.648Z,158.50
2019-05-16T05:36:12.295Z,100.65
2019-05-16T05:38:41.611Z,69.70
2019-05-16T05:41:10.851Z,54.55
2019-05-16T05:43:40.415Z,33.40
2019-05-16T05:46:11.199Z,25.45
2019-05-16T05:48:41.045Z,15.78
2019-05-16T05:51:11.361Z,14.07
2019-05-16T05:53:40.386Z,9.20
2019-05-16T05:56:11.297Z,6.60
2019-05-16T05:58:40.754Z,9.58
2019-05-16T06:01:11.223Z,4.03
2019-05-16T06:03:41.577Z,6.92
2019-05-16T06:06:10.785Z,3.60
2019-05-16T06:08:40.958Z,2.92
2019-05-16T06:11:10.411Z,3.43
2019-05-16T06:13:40.512Z,2.00
2019-05-16T06:16:10.802Z,4.92
2019-05-16T06:18:40.452Z,1.67
2019-05-16T06:21:11.574Z,1.60
2019-05-16T06:23:40.299Z,2.85
2019-05-16T06:26:12.113Z,1.72
2019-05-16T06:28:42.267Z,2.12
2019-05-16T06:31:15.988Z,1.43
2019-05-16T06:33:47.102Z,1.42
2019-05-16T06:36:16.305Z,1.00
2019-05-16T06:38:45.298Z,1.23
2019-05-16T06:41:14.292Z,3.07
2019-05-16T06:43:43.798Z,1.67
2019-05-16T06:46:13.816Z,2.83
2019-05-16T06:48:42.907Z,1.72
2019-05-16T06:51:11.799Z,1.40
2019-05-16T06:53:40.795Z,1.87
2019-05-16T06:56:10.489Z,2.67
2019-05-16T06:58:47.536Z,2.75
2019-05-16T07:01:10.508Z,1.77
2019-05-16T07:03:40.142Z,2.33
2019-05-16T07:06:13.893Z,4.33
2019-05-16T07:08:40.594Z,2.60
2019-05-16T07:11:10.545Z,1.37
2019-05-16T07:13:40.601Z,4.33
2019-05-16T07:16:10.922Z,2.62
2019-05-16T07:18:40.371Z,3.10
2019-05-16T07:21:10.886Z,1.17
2019-05-16T07:23:40.460Z,1.98
2019-05-16T07:26:10.116Z,2.58
2019-05-16T07:28:40.697Z,1.67
2019-05-16T07:31:15.683Z,1.60
2019-05-16T07:33:40.801Z,1.07
2019-05-16T07:36:10.133Z,1.66
2019-05-16T07:38:40.032Z,1.10
2019-05-16T07:41:11.039Z,1.07
2019-05-16T07:43:40.178Z,1.47
2019-05-16T07:46:11.108Z,1.55
2019-05-16T07:48:40.759Z,1.10
2019-05-16T07:51:10.690Z,1.42
2019-05-16T07:53:40.265Z,2.60
2019-05-16T07:56:10.513Z,1.30
2019-05-16T07:58:41.492Z,1.15
2019-05-16T08:01:12.444Z,0.72
2019-05-16T08:03:44.010Z,1.37
2019-05-16T08:06:11.700Z,1.07
2019-05-16T08:08:40.727Z,1.00
2019-05-16T08:11:12.222Z,0.85
2019-05-16T08:13:40.213Z,1.40
2019-05-16T08:16:10.180Z,1.70
2019-05-16T08:18:44.760Z,0.93
2019-05-16T08:21:11.448Z,7.60
2019-05-16T08:23:41.326Z,1.87
2019-05-16T08:26:10.709Z,0.95
2019-05-16T08:28:41.300Z,3.77
2019-05-16T08:31:11.944Z,1.00
2019-05-16T08:33:43.321Z,1.15
2019-05-16T08:36:12.271Z,1.13
2019-05-16T08:38:43.357Z,1.67
2019-05-16T08:43:42.876Z,1.02
2019-05-16T08:46:12.426Z,1.30
2019-05-16T08:51:12.401Z,0.70
2019-05-16T08:53:43.754Z,2.87
2019-05-16T08:56:13.374Z,3.42
2019-05-16T08:58:42.381Z,3.30
2019-05-16T09:03:43.834Z,1.32
2019-05-16T09:06:12.723Z,1.57
2019-05-16T09:08:42.669Z,2.02
2019-05-16T09:10:30.560Z,0.95
2019-05-16T09:11:29.229Z,1.10
2019-05-16T09:13:42.162Z,0.72
2019-05-16T09:16:11.155Z,1.57
2019-05-16T09:18:30.614Z,1.62
2019-05-16T09:18:30.895Z,0.80
2019-05-16T09:18:41.097Z,2.37
2019-05-16T09:21:10.470Z,0.95
2019-05-16T09:23:39.669Z,0.80
2019-05-16T09:26:08.663Z,1.00
2019-05-16T09:28:39.037Z,1.22
2019-05-16T09:31:08.491Z,0.62
2019-05-16T09:33:37.706Z,1.67
2019-05-16T09:36:08.066Z,0.70
2019-05-16T09:38:43.219Z,0.65
2019-05-16T09:41:08.335Z,0.50
2019-05-16T09:43:42.869Z,0.88
2019-05-16T09:46:08.289Z,3.95
2019-05-16T09:48:37.955Z,0.93
2019-05-16T09:51:07.508Z,2.55
2019-05-16T09:53:36.698Z,0.60
2019-05-16T09:56:06.994Z,1.15
2019-05-16T09:58:37.292Z,0.95
2019-05-16T10:01:06.557Z,0.82
2019-05-16T10:03:37.297Z,0.60
2019-05-16T10:06:08.005Z,1.52
2019-05-16T10:08:37.554Z,0.70
2019-05-16T10:11:06.513Z,2.42
2019-05-16T10:13:37.622Z,1.25
2019-05-16T10:16:08.491Z,0.78
2019-05-16T10:18:38.716Z,0.60
2019-05-16T10:21:08.220Z,0.98
2019-05-16T10:23:37.522Z,0.65
2019-05-16T10:26:06.719Z,1.47
2019-05-16T10:28:38.334Z,1.07
2019-05-16T10:31:06.926Z,0.90
2019-05-16T10:33:39.070Z,1.00
2019-05-16T10:36:08.678Z,2.25
2019-05-16T10:38:37.732Z,1.20
2019-05-16T10:41:07.353Z,1.25
2019-05-16T10:43:37.057Z,1.52
2019-05-16T10:46:06.616Z,2.10
2019-05-16T10:48:37.543Z,1.05
2019-05-16T10:51:07.804Z,0.90
2019-05-16T10:54:00.598Z,2.08
2019-05-16T10:56:07.720Z,1.20
2019-05-16T10:58:47.307Z,1.13
2019-05-16T11:01:22.233Z,0.80
2019-05-16T11:03:40.252Z,3.05
2019-05-16T11:06:24.418Z,0.57
2019-05-16T11:08:39.783Z,1.20
2019-05-16T11:11:09.176Z,4.65
2019-05-16T11:13:38.069Z,1.25
2019-05-16T11:16:09.534Z,1.50
2019-05-16T11:18:38.613Z,5.67
2019-05-16T11:21:07.504Z,0.70
2019-05-16T11:23:36.839Z,2.77
2019-05-16T11:26:06.822Z,1.10
2019-05-16T11:28:36.943Z,1.22
2019-05-16T11:31:07.615Z,1.20
2019-05-16T11:33:37.007Z,1.15
2019-05-16T11:36:08.074Z,0.60
2019-05-16T11:38:37.839Z,1.40
2019-05-16T11:41:07.435Z,1.27
2019-05-16T11:43:36.857Z,1.02
2019-05-16T11:46:05.731Z,1.25
2019-05-16T11:48:37.418Z,0.70
2019-05-16T11:51:07.163Z,1.92
2019-05-16T11:53:37.869Z,0.70
2019-05-16T11:56:08.326Z,1.00
2019-05-16T11:58:37.252Z,1.47
2019-05-16T12:01:07.576Z,0.70
2019-05-16T12:03:37.372Z,0.70
2019-05-16T12:06:10.508Z,1.80
2019-05-16T12:08:37.528Z,1.20
2019-05-16T12:11:06.885Z,1.45
2019-05-16T12:13:36.868Z,1.98
2019-05-16T12:16:07.688Z,0.60
2019-05-16T12:18:37.382Z,0.95
2019-05-16T12:21:07.625Z,5.35
2019-05-16T12:23:37.590Z,0.95
2019-05-16T12:26:07.895Z,0.60
2019-05-16T12:28:37.688Z,0.57
2019-05-16T12:31:07.986Z,1.90
2019-05-16T12:33:37.727Z,0.57
2019-05-16T12:36:08.427Z,0.90
2019-05-16T12:38:38.321Z,1.10
2019-05-16T12:41:09.081Z,0.82
2019-05-16T12:43:49.008Z,2.90
2019-05-16T12:46:12.909Z,3.70
2019-05-16T12:48:47.200Z,1.30
2019-05-16T12:51:17.124Z,1.17
2019-05-16T12:53:47.826Z,3.02
2019-05-16T12:56:17.500Z,0.63
2019-05-16T12:58:47.254Z,1.05
2019-05-16T13:01:20.536Z,1.60
2019-05-16T13:03:48.079Z,1.57
2019-05-16T13:06:17.301Z,1.60
2019-05-16T13:08:46.841Z,4.22
2019-05-16T13:11:17.742Z,1.52
2019-05-16T13:14:02.221Z,1.75
2019-05-16T13:16:16.859Z,1.35
2019-05-16T13:18:47.514Z,2.17
2019-05-16T13:21:18.414Z,0.93
2019-05-16T13:23:46.849Z,0.78
2019-05-16T13:26:17.670Z,2.27
2019-05-16T13:28:47.597Z,2.10
2019-05-16T13:31:17.815Z,0.85
2019-05-16T13:33:46.583Z,1.20
2019-05-16T13:36:17.373Z,2.27
2019-05-16T13:38:47.987Z,1.00
2019-05-16T13:41:19.624Z,1.07
2019-05-16T13:43:48.622Z,1.00
2019-05-16T13:46:17.611Z,3.27
2019-05-16T13:48:46.705Z,1.95
2019-05-16T13:51:18.475Z,2.98
2019-05-16T13:53:47.160Z,1.30
2019-05-16T13:56:17.562Z,2.77
2019-05-16T13:58:47.117Z,0.60
2019-05-16T14:01:17.134Z,1.05
2019-05-16T14:03:48.200Z,0.93
2019-05-16T14:06:18.380Z,1.05
2019-05-16T14:08:47.460Z,0.95
2019-05-16T14:11:17.271Z,1.22
2019-05-16T14:13:46.981Z,2.72
2019-05-16T14:16:17.958Z,1.13
2019-05-16T14:18:46.972Z,1.52
2019-05-16T14:21:18.139Z,2.58
2019-05-16T14:23:53.283Z,0.80
2019-05-16T14:26:17.504Z,1.27
2019-05-16T14:28:48.941Z,0.95
2019-05-16T14:31:17.399Z,1.45
2019-05-16T14:33:47.454Z,2.87
2019-05-16T14:36:16.558Z,0.95
2019-05-16T14:38:46.820Z,0.72
2019-05-16T14:41:17.341Z,2.55
2019-05-16T14:43:46.805Z,0.90
2019-05-16T14:46:18.293Z,3.42
2019-05-16T14:48:46.399Z,0.70
2019-05-16T14:51:17.819Z,1.30
2019-05-16T14:53:47.160Z,1.65
2019-05-16T14:56:16.454Z,1.50
2019-05-16T14:58:48.169Z,0.70
2019-05-16T15:01:17.647Z,1.40
2019-05-16T15:03:47.266Z,2.50
2019-05-16T15:06:18.187Z,2.08
2019-05-16T15:08:48.519Z,1.23
2019-05-16T15:11:18.127Z,1.67
2019-05-16T15:13:47.188Z,0.85
2019-05-16T15:16:16.974Z,0.93
2019-05-16T15:18:47.465Z,2.57
2019-05-16T15:21:17.661Z,1.32
2019-05-16T15:23:46.849Z,0.82
2019-05-16T15:26:18.049Z,0.80
2019-05-16T15:28:50.705Z,0.70
2019-05-16T15:31:16.797Z,0.93
2019-05-16T15:33:47.587Z,0.85
2019-05-16T15:36:16.724Z,1.35
2019-05-16T15:38:47.181Z,4.78
2019-05-16T15:41:17.102Z,1.42
2019-05-16T15:43:46.676Z,2.02
2019-05-16T15:46:17.357Z,0.62
2019-05-16T15:48:48.782Z,1.20
2019-05-16T15:51:19.068Z,1.20
2019-05-16T15:53:47.259Z,0.80
2019-05-16T15:56:17.785Z,1.07
2019-05-16T15:58:46.804Z,1.15
2019-05-16T16:01:18.453Z,1.95
2019-05-16T16:03:47.214Z,0.90
2019-05-16T16:06:17.829Z,0.70
2019-05-16T16:08:47.560Z,0.50
2019-05-16T16:11:17.251Z,0.90
2019-05-16T16:13:48.412Z,1.00
2019-05-16T16:16:17.420Z,0.75
2019-05-16T16:18:46.940Z,1.45
2019-05-16T16:21:16.707Z,1.10
2019-05-16T16:23:47.298Z,1.57
2019-05-16T16:26:17.715Z,0.82
2019-05-16T16:28:47.298Z,3.35
2019-05-16T16:31:16.774Z,2.98
2019-05-16T16:33:46.514Z,2.33
2019-05-16T16:36:17.136Z,0.87
2019-05-16T16:38:47.711Z,0.90
2019-05-16T16:41:16.864Z,155.93
2019-05-16T16:43:47.776Z,32.00
2019-05-16T16:46:16.843Z,198.60
2019-05-16T16:48:45.992Z,70.85
2019-05-16T16:51:17.403Z,9.85
2019-05-16T16:53:46.875Z,8.65
2019-05-16T16:56:17.273Z,1.42
2019-05-16T16:58:46.482Z,1.17
2019-05-16T17:01:17.371Z,1.77
2019-05-16T17:03:47.007Z,18.85
2019-05-16T17:06:17.657Z,25.17
2019-05-16T17:08:47.384Z,34.77
2019-05-16T17:11:16.760Z,4.80
2019-05-16T17:13:47.214Z,20.60
2019-05-16T17:16:23.128Z,32.10
2019-05-16T17:18:47.493Z,3.92
2019-05-16T17:21:17.079Z,4.25
2019-05-16T17:23:46.508Z,2.60
2019-05-16T17:26:15.944Z,3.07
2019-05-16T17:28:46.779Z,1.70
2019-05-16T17:31:16.747Z,3.37
2019-05-16T17:33:46.042Z,4.17
2019-05-16T17:36:17.260Z,6.08
2019-05-16T17:38:46.639Z,21.68
2019-05-16T17:41:16.785Z,6.35
2019-05-16T17:43:46.947Z,11.73
2019-05-16T17:46:16.184Z,6.83
2019-05-16T17:48:46.841Z,5.23
2019-05-16T17:51:16.876Z,3.95
2019-05-16T17:53:45.928Z,4.37
2019-05-16T17:56:16.891Z,7.22
2019-05-16T17:58:45.551Z,31.57
2019-05-16T18:01:16.877Z,17.20
2019-05-16T18:03:45.278Z,25.82
2019-05-16T18:06:14.275Z,17.45
2019-05-16T18:08:46.688Z,23.83
2019-05-16T18:11:14.611Z,6.83
2019-05-16T18:13:43.504Z,11.93
2019-05-16T18:16:12.392Z,23.62
2019-05-16T18:18:41.180Z,4.55
2019-05-16T18:21:10.073Z,16.77
2019-05-16T18:23:39.067Z,12.50
2019-05-16T18:26:08.070Z,2.10
2019-05-16T18:28:38.075Z,2.25
2019-05-16T18:31:06.968Z,1.27
2019-05-16T18:33:37.159Z,52.90
2019-05-16T18:36:07.663Z,6.17
2019-05-16T18:38:37.293Z,2.60
2019-05-16T18:41:07.792Z,28.07
2019-05-16T18:43:37.167Z,7.83
2019-05-16T18:46:07.272Z,33.53
2019-05-16T18:48:36.850Z,3.52
2019-05-16T18:51:06.623Z,1.10
2019-05-16T18:53:37.495Z,1.02
2019-05-16T18:56:07.824Z,248.53
2019-05-16T18:58:37.321Z,8.83
2019-05-16T19:01:06.787Z,1.35
2019-05-16T19:03:36.171Z,12.25
2019-05-16T19:06:07.581Z,8.50
2019-05-16T19:08:36.430Z,4.37
2019-05-16T19:11:07.418Z,8.80
2019-05-16T19:13:36.868Z,48.70
2019-05-16T19:16:06.351Z,67.70
2019-05-16T19:18:36.892Z,347.30
2019-05-16T19:21:07.556Z,55.52
2019-05-16T19:23:37.692Z,47.65
2019-05-16T19:26:07.576Z,46.25
2019-05-16T19:28:37.402Z,35.50
2019-05-16T19:31:07.687Z,37.08
2019-05-16T19:33:36.684Z,32.65
2019-05-16T19:36:07.282Z,32.80
2019-05-16T19:38:37.438Z,32.88
2019-05-16T19:41:08.294Z,26.60
2019-05-16T19:43:38.180Z,24.95
2019-05-16T19:46:07.968Z,21.00
2019-05-16T19:48:38.723Z,21.65
2019-05-16T19:51:07.700Z,23.87
2019-05-16T19:53:38.904Z,21.68
2019-05-16T19:56:08.067Z,19.60
2019-05-16T19:58:37.537Z,16.73
2019-05-16T20:01:06.355Z,18.10
2019-05-16T20:03:36.512Z,17.60
2019-05-16T20:06:07.423Z,17.67
2019-05-16T20:08:37.354Z,12.73
2019-05-16T20:11:07.634Z,14.07
2019-05-16T20:13:36.802Z,15.40
2019-05-16T20:16:06.151Z,12.45
2019-05-16T20:18:37.237Z,11.25
2019-05-16T20:21:05.676Z,15.58
2019-05-16T20:23:36.852Z,12.85
2019-05-16T20:26:07.829Z,9.33
2019-05-16T20:28:37.622Z,33.75
2019-05-16T20:31:07.940Z,131.32
2019-05-16T20:33:37.635Z,164.07
2019-05-16T20:36:09.549Z,111.17
2019-05-16T20:38:39.171Z,35.68
2019-05-16T20:41:08.063Z,43.15
2019-05-16T20:43:37.063Z,10.80
2019-05-16T20:46:07.285Z,6.62
2019-05-16T20:48:36.891Z,9.08
2019-05-16T20:51:07.320Z,8.35
2019-05-16T20:53:37.561Z,6.80
2019-05-16T20:56:07.253Z,5.87
2019-05-16T20:58:36.236Z,6.47
2019-05-16T21:01:07.017Z,394.98
2019-05-16T21:03:37.789Z,372.90
2019-05-16T21:06:08.430Z,495.65
2019-05-16T21:08:38.968Z,504.02
2019-05-16T21:11:07.959Z,464.67
2019-05-16T21:13:36.954Z,603.85
2019-05-16T21:16:07.185Z,461.60
2019-05-16T21:18:37.742Z,527.67
2019-05-16T21:21:07.684Z,415.10
2019-05-16T21:23:37.024Z,394.75
2019-05-16T21:26:05.912Z,307.90
2019-05-16T21:28:36.780Z,282.37
2019-05-16T21:31:07.270Z,231.17
2019-05-16T21:33:36.543Z,197.17
2019-05-16T21:36:07.175Z,189.07
2019-05-16T21:38:37.637Z,147.15
2019-05-16T21:41:07.224Z,136.40
2019-05-16T21:43:37.648Z,122.82
2019-05-16T21:46:07.297Z,399.07
2019-05-16T21:48:37.033Z,117.25
2019-05-16T21:51:07.911Z,100.38
2019-05-16T21:53:36.876Z,87.65
2019-05-16T21:56:07.041Z,81.57
2019-05-16T21:58:37.119Z,79.58
2019-05-16T22:01:06.733Z,69.00
2019-05-16T22:03:36.741Z,75.70
2019-05-16T22:06:08.006Z,58.78
2019-05-16T22:08:37.535Z,58.55
2019-05-16T22:11:06.866Z,54.85
2019-05-16T22:13:37.055Z,52.25
2019-05-16T22:16:08.042Z,57.15
2019-05-16T22:18:38.564Z,57.50
2019-05-16T22:21:07.784Z,54.90
2019-05-16T22:23:37.375Z,53.60
2019-05-16T22:26:07.562Z,51.60
2019-05-16T22:28:37.428Z,50.08
2019-05-16T22:31:07.355Z,46.75
2019-05-16T22:33:37.446Z,50.17
2019-05-16T22:36:07.028Z,50.33
2019-05-16T22:38:36.204Z,46.57
2019-05-16T22:41:07.321Z,47.70
2019-05-16T22:43:37.164Z,46.85
2019-05-16T22:46:06.416Z,47.00
2019-05-16T22:48:37.501Z,40.98
2019-05-16T22:51:07.103Z,42.70
2019-05-16T22:53:36.883Z,42.83
2019-05-16T22:56:07.487Z,44.30
2019-05-16T22:58:36.756Z,42.27
2019-05-16T23:01:06.870Z,43.40
2019-05-16T23:03:38.020Z,39.20
2019-05-16T23:06:07.687Z,42.85
2019-05-16T23:08:37.340Z,41.58
2019-05-16T23:11:07.862Z,36.60
2019-05-16T23:13:36.854Z,38.80
2019-05-16T23:16:06.730Z,33.65
2019-05-16T23:18:37.545Z,36.00
2019-05-16T23:21:06.507Z,34.00
2019-05-16T23:23:37.205Z,38.05
2019-05-16T23:26:06.552Z,32.80
2019-05-16T23:28:41.565Z,34.63
2019-05-16T23:31:10.556Z,34.60
2019-05-16T23:33:39.346Z,33.57
2019-05-16T23:36:08.237Z,32.73
2019-05-16T23:38:39.073Z,32.03
2019-05-16T23:41:08.066Z,28.17
2019-05-16T23:43:37.569Z,30.02
2019-05-16T23:46:07.223Z,31.10
2019-05-16T23:48:38.426Z,30.77
2019-05-16T23:51:08.017Z,29.48
2019-05-16T23:53:37.333Z,30.47
2019-05-16T23:56:07.467Z,29.10
2019-05-16T23:58:37.107Z,26.95
